New Almaden, California
Current Conditions -  °F | °C
As of 12:47 PM on Thursday 18 Dec 2014 (Local Time) from KRHV Reporting Station
Broken Clouds Broken Clouds  
Wind Chill: 17°   Ceiling: 12000
Heat Index: 17°   Visibility: 10mi
Dew Point: 10°   Wind: 7mph
Humidity: 63%   Direction: NA
Pressure: 30.15"   Gusts: NA
Location:  37.18°N, 121.82°W
Report Text: KRHV 182047Z VRB06KT 10SM SCT025 BKN120 17/10 A3015
Loading
Personal Weather Stations






























Interactive Weather Map New forecast layout! Learn more

10-Day Weather Forecast

Advertisements
Track Severe Weather on mobile